Time;durP1;ratioP1;P1;durP2;ratioP2;P2;SDS_P1;SDS_P2;PMS_P1;PMS_P2;Temp;Humidity;BMP_temperature;BMP_pressure;BME280_temperature;BME280_humidity;BME280_pressure;Samples;Min_cycle;Max_cycle;Signal;HPM_P1;HPM_P2
2023/01/09 00:01:49;;;;;;;3.03;1.45;;;6.10;99.90;;;;;;5047992;28;20516;-61
2023/01/09 00:04:16;;;;;;;5.57;1.70;;;6.20;99.90;;;;;;5047976;28;20491;-61
2023/01/09 00:06:42;;;;;;;3.47;1.45;;;6.30;99.90;;;;;;5042528;28;20041;-62
2023/01/09 00:09:10;;;;;;;5.93;1.55;;;6.30;99.90;;;;;;5048250;28;20041;-61
2023/01/09 00:11:36;;;;;;;6.32;1.60;;;6.40;99.90;;;;;;5048271;28;20403;-61
2023/01/09 00:14:03;;;;;;;5.75;1.45;;;6.40;99.90;;;;;;5044812;28;20042;-61
2023/01/09 00:16:29;;;;;;;2.10;1.38;;;6.50;99.90;;;;;;5048007;28;20045;-61
2023/01/09 00:18:55;;;;;;;3.55;1.50;;;6.50;99.90;;;;;;5048039;28;20056;-61
2023/01/09 00:21:21;;;;;;;2.92;1.40;;;6.60;99.90;;;;;;5047765;28;20076;-61
2023/01/09 00:23:47;;;;;;;3.45;1.05;;;6.60;99.90;;;;;;5030069;28;20455;-61
2023/01/09 00:26:16;;;;;;;5.60;1.50;;;6.60;99.90;;;;;;5029418;28;20049;-61
2023/01/09 00:28:44;;;;;;;3.97;1.27;;;6.70;99.90;;;;;;5047483;28;20048;-61
2023/01/09 00:31:10;;;;;;;3.70;1.45;;;6.70;99.90;;;;;;5047077;28;20054;-61
2023/01/09 00:33:44;;;;;;;2.40;1.20;;;6.70;99.90;;;;;;5046186;28;20480;-61
2023/01/09 00:36:11;;;;;;;9.57;1.80;;;6.70;99.90;;;;;;5031042;28;20044;-61
2023/01/09 00:38:37;;;;;;;3.67;1.35;;;6.70;99.90;;;;;;5047284;28;20052;-61
2023/01/09 00:41:06;;;;;;;5.13;1.50;;;6.70;99.90;;;;;;5048021;28;20048;-63
2023/01/09 00:43:35;;;;;;;1.38;1.20;;;6.70;99.90;;;;;;5028494;28;20041;-63
2023/01/09 00:46:05;;;;;;;4.15;1.20;;;6.70;99.90;;;;;;5039453;28;20045;-63
2023/01/09 00:48:33;;;;;;;3.97;1.00;;;6.80;99.90;;;;;;5029869;28;20041;-64
2023/01/09 00:50:59;;;;;;;5.63;2.53;;;6.80;99.90;;;;;;5028842;28;20527;-64
2023/01/09 00:53:30;;;;;;;1.67;0.98;;;6.80;99.90;;;;;;5047679;28;20045;-63
2023/01/09 00:55:59;;;;;;;4.63;1.50;;;6.80;99.90;;;;;;5047013;28;20033;-64
2023/01/09 00:58:24;;;;;;;5.72;1.52;;;6.90;99.90;;;;;;5044475;28;20487;-63
2023/01/09 01:00:50;;;;;;;6.85;1.42;;;6.90;99.90;;;;;;5044309;28;20056;-64
2023/01/09 01:03:16;;;;;;;3.60;1.23;;;6.90;99.90;;;;;;5029312;28;20066;-64
2023/01/09 01:08:27;;;;;;;3.63;1.25;;;7.00;99.90;;;;;;5042989;28;20559;-63
2023/01/09 01:10:53;;;;;;;3.22;1.10;;;7.00;99.90;;;;;;5014465;28;20046;-63
2023/01/09 01:13:19;;;;;;;5.65;1.55;;;7.10;99.90;;;;;;5029069;28;20507;-63
2023/01/09 01:15:45;;;;;;;1.77;1.20;;;7.00;99.90;;;;;;5046812;28;20036;-64
2023/01/09 01:18:12;;;;;;;2.47;1.00;;;7.10;99.90;;;;;;5042278;28;20083;-64
2023/01/09 01:20:43;;;;;;;5.65;1.33;;;7.00;99.90;;;;;;5020536;28;20550;-64
2023/01/09 01:23:10;;;;;;;4.10;1.23;;;6.90;99.90;;;;;;5028454;28;20052;-64
2023/01/09 01:25:37;;;;;;;7.18;1.30;;;6.90;99.90;;;;;;5046601;28;20041;-64
2023/01/09 01:28:04;;;;;;;2.95;0.75;;;6.80;99.90;;;;;;5028934;28;20101;-64
2023/01/09 01:30:30;;;;;;;1.70;0.80;;;6.80;99.90;;;;;;5047063;28;20037;-64
2023/01/09 01:32:56;;;;;;;1.60;0.60;;;6.80;99.90;;;;;;5043530;28;20487;-64
2023/01/09 01:35:23;;;;;;;3.85;1.48;;;6.60;99.90;;;;;;5021074;28;20050;-64
2023/01/09 01:37:48;;;;;;;1.75;0.60;;;6.60;99.90;;;;;;5038307;28;20056;-64
2023/01/09 01:40:15;;;;;;;2.55;0.43;;;6.50;99.90;;;;;;5046435;28;20053;-65
2023/01/09 01:42:51;;;;;;;0.45;0.32;;;6.40;99.90;;;;;;5028959;28;20495;-64
2023/01/09 01:45:21;;;;;;;1.38;0.47;;;6.40;99.90;;;;;;5025390;28;20067;-64
2023/01/09 01:48:05;;;;;;;3.50;0.50;;;6.30;99.90;;;;;;5026685;28;20038;-65
2023/01/09 01:50:34;;;;;;;0.60;0.20;;;6.30;99.90;;;;;;5027382;28;20265;-64
2023/01/09 01:53:19;;;;;;;0.65;0.32;;;6.20;99.90;;;;;;5046070;28;20041;-65
2023/01/09 01:56:15;;;;;;;1.65;0.30;;;6.20;99.90;;;;;;5028509;28;20045;-64
2023/01/09 01:58:53;;;;;;;0.70;0.30;;;6.20;99.90;;;;;;5036336;28;20049;-65
2023/01/09 02:01:21;;;;;;;2.70;0.30;;;6.10;99.90;;;;;;5044681;28;20424;-65
2023/01/09 02:03:48;;;;;;;0.20;0.10;;;6.10;99.90;;;;;;5045343;28;20041;-65
2023/01/09 02:06:14;;;;;;;0.90;0.60;;;6.10;99.90;;;;;;5045497;28;20048;-65
2023/01/09 02:08:40;;;;;;;0.68;0.50;;;6.10;99.90;;;;;;5039605;28;20459;-65
2023/01/09 02:11:07;;;;;;;2.60;0.60;;;6.10;99.90;;;;;;5035913;28;20387;-65
2023/01/09 02:13:37;;;;;;;0.70;0.65;;;6.10;99.90;;;;;;5050372;28;20126;-65
2023/01/09 02:16:21;;;;;;;1.33;0.70;;;6.10;99.90;;;;;;5050567;28;20060;-65
2023/01/09 02:18:52;;;;;;;2.90;1.38;;;6.20;99.90;;;;;;5050807;28;20049;-65
2023/01/09 02:21:37;;;;;;;3.50;1.40;;;6.20;99.90;;;;;;5049438;28;20487;-65
2023/01/09 02:24:48;;;;;;;2.92;1.52;;;6.20;99.90;;;;;;5049848;28;20049;-65
2023/01/09 02:27:22;;;;;;;;;;;6.20;99.90;;;;;;5021376;28;20057;-65
2023/01/09 02:30:18;;;;;;;3.70;1.38;;;6.20;99.90;;;;;;5050098;28;20264;-65
2023/01/09 02:32:47;;;;;;;2.88;1.30;;;6.30;99.90;;;;;;5027993;28;20056;-65
2023/01/09 02:35:24;;;;;;;3.50;1.10;;;6.30;99.90;;;;;;5049765;28;20717;-65
2023/01/09 02:38:22;;;;;;;4.25;1.30;;;6.30;99.90;;;;;;5045513;28;20045;-65
2023/01/09 02:41:07;;;;;;;1.48;0.93;;;6.30;99.90;;;;;;5049068;28;20143;-65
2023/01/09 02:43:34;;;;;;;2.80;0.95;;;6.30;99.90;;;;;;5036127;28;20930;-65
2023/01/09 02:45:59;;;;;;;4.93;0.90;;;6.40;99.90;;;;;;5049690;28;20057;-65
2023/01/09 02:48:25;;;;;;;2.50;0.82;;;6.40;99.90;;;;;;5049509;28;20116;-65
2023/01/09 02:51:37;;;;;;;3.80;0.85;;;6.50;99.90;;;;;;5050038;28;20056;-65
2023/01/09 02:54:07;;;;;;;2.00;0.80;;;6.50;99.90;;;;;;5042051;28;20053;-64
2023/01/09 02:56:32;;;;;;;7.82;1.42;;;6.50;99.90;;;;;;5049271;28;20053;-65
2023/01/09 02:59:07;;;;;;;3.92;0.98;;;6.50;99.90;;;;;;5043401;28;20098;-64
2023/01/09 03:01:53;;;;;;;3.90;0.90;;;6.50;99.90;;;;;;5041794;28;20068;-65
2023/01/09 03:04:56;;;;;;;5.05;0.90;;;6.50;99.90;;;;;;5049014;28;20045;-65
2023/01/09 03:07:31;;;;;;;1.90;0.80;;;6.50;99.90;;;;;;5036038;28;20053;-62
2023/01/09 03:10:09;;;;;;;2.88;0.90;;;6.50;99.90;;;;;;5039103;28;20045;-64
2023/01/09 03:12:36;;;;;;;0.98;0.70;;;6.40;99.90;;;;;;5046690;28;20037;-64
2023/01/09 03:15:05;;;;;;;2.90;1.00;;;6.40;99.90;;;;;;5039749;28;20037;-65
2023/01/09 03:17:38;;;;;;;7.78;1.00;;;6.40;99.90;;;;;;5049334;28;20098;-64
2023/01/09 03:20:09;;;;;;;1.85;0.90;;;6.30;99.90;;;;;;5047908;28;20076;-64
2023/01/09 03:22:34;;;;;;;7.60;1.20;;;6.30;99.90;;;;;;5034776;28;20073;-65
2023/01/09 03:25:00;;;;;;;5.70;1.00;;;6.30;99.90;;;;;;5044135;28;20092;-64
2023/01/09 03:27:26;;;;;;;7.50;1.08;;;6.30;99.90;;;;;;5048453;28;20124;-64
2023/01/09 03:29:53;;;;;;;3.58;1.17;;;6.30;99.90;;;;;;5049438;28;20033;-65
2023/01/09 03:32:19;;;;;;;2.70;1.17;;;6.20;99.90;;;;;;5047671;28;20045;-64
2023/01/09 03:34:45;;;;;;;5.90;1.30;;;6.20;99.90;;;;;;5017074;28;20373;-64
2023/01/09 03:37:11;;;;;;;2.55;1.30;;;6.20;99.90;;;;;;5045627;28;20068;-64
2023/01/09 03:39:37;;;;;;;4.97;1.23;;;6.10;99.90;;;;;;5048843;28;20048;-64
2023/01/09 03:42:03;;;;;;;5.35;1.20;;;6.10;99.90;;;;;;5048252;28;20057;-64
2023/01/09 03:44:28;;;;;;;1.95;0.90;;;6.00;99.90;;;;;;5048786;28;20060;-64
2023/01/09 03:46:54;;;;;;;1.60;1.10;;;6.00;99.90;;;;;;5048788;28;20048;-64
2023/01/09 03:49:20;;;;;;;11.93;1.30;;;6.00;99.90;;;;;;5048078;28;20041;-65
2023/01/09 03:51:46;;;;;;;3.63;1.25;;;5.90;99.90;;;;;;5048638;28;20073;-64
2023/01/09 03:54:12;;;;;;;6.82;1.05;;;5.90;99.90;;;;;;5048242;28;20495;-64
2023/01/09 03:56:37;;;;;;;6.65;1.30;;;5.90;99.90;;;;;;5029907;28;20060;-64
2023/01/09 03:59:05;;;;;;;4.10;1.27;;;5.90;99.90;;;;;;5046930;28;20128;-64
2023/01/09 04:01:32;;;;;;;5.43;1.42;;;5.80;99.90;;;;;;5000173;28;20121;-64
2023/01/09 04:03:57;;;;;;;5.70;1.38;;;5.80;99.90;;;;;;4995778;28;20172;-64
2023/01/09 04:06:23;;;;;;;11.73;1.30;;;5.80;99.90;;;;;;5008076;28;20136;-64
2023/01/09 04:08:49;;;;;;;1.75;1.20;;;5.80;99.90;;;;;;5000291;28;20054;-64
2023/01/09 04:11:16;;;;;;;4.35;1.40;;;5.70;99.90;;;;;;4993448;28;20133;-64
2023/01/09 04:13:43;;;;;;;3.72;1.05;;;5.70;99.90;;;;;;5008619;28;20046;-64
2023/01/09 04:16:09;;;;;;;6.15;1.45;;;5.70;99.90;;;;;;5008367;28;20116;-64
2023/01/09 04:18:35;;;;;;;10.88;1.75;;;5.70;99.90;;;;;;5002437;28;20165;-64
2023/01/09 04:21:01;;;;;;;6.03;1.25;;;5.70;99.90;;;;;;5005145;28;20038;-64
2023/01/09 04:23:26;;;;;;;3.83;1.35;;;5.70;99.90;;;;;;5007806;28;20561;-64
2023/01/09 04:25:52;;;;;;;8.15;1.60;;;5.70;99.90;;;;;;4993791;28;20058;-64
2023/01/09 04:28:18;;;;;;;15.15;2.10;;;5.60;99.90;;;;;;5006313;28;20046;-64
2023/01/09 04:30:44;;;;;;;9.93;1.75;;;5.60;99.90;;;;;;5001298;28;20045;-64
2023/01/09 04:33:10;;;;;;;7.38;1.80;;;5.50;99.90;;;;;;5005735;28;20512;-64
2023/01/09 04:35:35;;;;;;;7.43;1.60;;;5.60;99.90;;;;;;5008159;28;20087;-64
2023/01/09 04:38:01;;;;;;;8.75;1.90;;;5.60;99.90;;;;;;5008273;28;20509;-64
2023/01/09 04:40:27;;;;;;;7.60;1.73;;;5.50;99.90;;;;;;5007551;28;20052;-64
2023/01/09 04:42:53;;;;;;;8.95;2.15;;;5.50;99.90;;;;;;5006746;28;20099;-64
2023/01/09 04:45:18;;;;;;;10.35;1.70;;;5.50;99.90;;;;;;5007387;28;20050;-64
2023/01/09 04:47:44;;;;;;;5.22;1.73;;;5.40;99.90;;;;;;5008601;28;20480;-64
2023/01/09 04:50:11;;;;;;;5.65;1.77;;;5.40;99.90;;;;;;5007680;28;20100;-64
2023/01/09 04:52:37;;;;;;;3.40;1.40;;;5.40;99.90;;;;;;5007472;28;20073;-64
2023/01/09 04:55:04;;;;;;;8.15;2.15;;;5.40;99.90;;;;;;5007710;28;20139;-64
2023/01/09 04:57:30;;;;;;;6.45;2.10;;;5.50;99.90;;;;;;5007191;28;20522;-64
2023/01/09 04:59:55;;;;;;;7.47;2.10;;;5.40;99.90;;;;;;5021195;28;20145;-64
2023/01/09 05:02:21;;;;;;;8.70;2.50;;;5.40;99.90;;;;;;5041062;28;20084;-64
2023/01/09 05:04:47;;;;;;;6.20;2.45;;;5.40;99.90;;;;;;5047618;28;20098;-64
2023/01/09 05:07:13;;;;;;;6.43;2.20;;;5.40;99.90;;;;;;5046526;28;20084;-64
2023/01/09 05:09:39;;;;;;;8.07;2.10;;;5.40;99.90;;;;;;5029432;28;20526;-62
2023/01/09 05:12:05;;;;;;;8.70;2.70;;;5.40;99.90;;;;;;5040673;28;20044;-62
2023/01/09 05:14:31;;;;;;;10.40;2.28;;;5.40;99.90;;;;;;5045577;28;20060;-62
2023/01/09 05:16:56;;;;;;;6.72;1.92;;;5.30;99.90;;;;;;5047443;28;20511;-62
2023/01/09 05:19:24;;;;;;;10.60;2.25;;;5.30;99.90;;;;;;5046701;28;20045;-62
2023/01/09 05:21:50;;;;;;;5.30;1.90;;;5.30;99.90;;;;;;5029325;28;20135;-64
2023/01/09 05:24:16;;;;;;;13.07;2.58;;;5.30;99.90;;;;;;5024694;28;20151;-64
2023/01/09 05:26:41;;;;;;;6.47;2.60;;;5.30;99.90;;;;;;5047738;28;20095;-64
2023/01/09 05:29:08;;;;;;;11.20;2.50;;;5.30;99.90;;;;;;5025362;28;20077;-65
2023/01/09 05:31:34;;;;;;;13.25;2.40;;;5.20;99.90;;;;;;5044949;28;20438;-64
2023/01/09 05:34:00;;;;;;;10.48;2.45;;;5.20;99.90;;;;;;5046274;28;20037;-64
2023/01/09 05:36:25;;;;;;;10.68;2.80;;;5.10;99.90;;;;;;5046484;28;20119;-64
2023/01/09 05:38:51;;;;;;;10.32;2.70;;;5.10;99.90;;;;;;5047329;28;20427;-64
2023/01/09 05:41:18;;;;;;;6.38;2.30;;;5.00;99.90;;;;;;5011946;28;20052;-64
2023/01/09 05:43:44;;;;;;;9.57;2.90;;;5.00;99.90;;;;;;5041584;28;20125;-64
2023/01/09 05:46:10;;;;;;;16.73;3.00;;;5.10;99.90;;;;;;5018177;28;20053;-64
2023/01/09 05:48:36;;;;;;;8.05;2.70;;;5.10;99.90;;;;;;5046331;28;20106;-64
2023/01/09 05:51:03;;;;;;;13.07;2.70;;;5.10;99.90;;;;;;5046784;28;20052;-64
2023/01/09 05:53:29;;;;;;;8.23;3.30;;;5.10;99.90;;;;;;5028072;28;20048;-64
2023/01/09 05:55:55;;;;;;;7.93;2.92;;;5.10;99.90;;;;;;5002417;28;20038;-64
2023/01/09 05:58:22;;;;;;;8.57;3.40;;;5.10;99.90;;;;;;5024003;28;20098;-64
2023/01/09 06:00:48;;;;;;;23.98;3.72;;;5.10;99.90;;;;;;5046493;28;20482;-64
2023/01/09 06:03:13;;;;;;;9.10;4.88;;;5.10;99.90;;;;;;5040393;28;20388;-64
2023/01/09 06:05:39;;;;;;;14.52;4.43;;;5.10;99.90;;;;;;5028142;28;20376;-64
2023/01/09 06:08:05;;;;;;;14.85;5.30;;;5.10;99.90;;;;;;5046504;28;20450;-64
2023/01/09 06:10:31;;;;;;;15.95;4.93;;;5.10;99.90;;;;;;5027936;28;20059;-64
2023/01/09 06:12:56;;;;;;;17.92;4.82;;;5.10;99.90;;;;;;5046448;28;20073;-64
2023/01/09 06:15:22;;;;;;;11.35;4.53;;;5.20;99.90;;;;;;5045580;28;20250;-64
2023/01/09 06:17:48;;;;;;;18.40;5.53;;;5.20;99.90;;;;;;5046313;28;20504;-64
2023/01/09 06:20:13;;;;;;;12.88;5.78;;;5.20;99.90;;;;;;5044263;28;20496;-64
2023/01/09 06:22:39;;;;;;;15.93;5.82;;;5.20;99.90;;;;;;5028131;28;20152;-64
2023/01/09 06:25:05;;;;;;;22.23;6.55;;;5.20;99.90;;;;;;5027221;28;20480;-64
2023/01/09 06:27:31;;;;;;;13.65;6.90;;;5.30;99.90;;;;;;5040507;28;20123;-64
2023/01/09 06:29:57;;;;;;;12.75;6.70;;;5.30;99.90;;;;;;5045956;28;20140;-64
2023/01/09 06:32:24;;;;;;;12.23;7.05;;;5.30;99.90;;;;;;5045676;28;20195;-64
2023/01/09 06:34:49;;;;;;;19.00;6.60;;;5.40;99.90;;;;;;5045978;28;20044;-64
2023/01/09 06:37:15;;;;;;;5.90;3.67;;;5.40;99.90;;;;;;5011190;28;20045;-64
2023/01/09 06:39:41;;;;;;;16.13;7.53;;;5.40;99.90;;;;;;5046109;28;20029;-64
2023/01/09 06:42:07;;;;;;;14.77;6.75;;;5.50;99.90;;;;;;5045991;28;20077;-64
2023/01/09 06:44:35;;;;;;;15.50;7.70;;;5.50;99.90;;;;;;5046060;28;20053;-64
2023/01/09 06:47:04;;;;;;;13.35;6.28;;;5.60;99.90;;;;;;5044662;28;20036;-64
2023/01/09 06:49:30;;;;;;;11.02;6.78;;;5.60;99.90;;;;;;5027679;28;20048;-64
2023/01/09 06:51:56;;;;;;;18.05;8.82;;;5.60;99.90;;;;;;5027895;28;20049;-64
2023/01/09 06:54:22;;;;;;;17.50;9.57;;;5.70;99.90;;;;;;5040779;28;20108;-64
2023/01/09 06:56:47;;;;;;;21.92;8.90;;;5.70;99.90;;;;;;5048526;28;20044;-64
2023/01/09 06:59:13;;;;;;;15.82;8.27;;;5.70;99.90;;;;;;5049471;28;20064;-62
2023/01/09 07:01:40;;;;;;;23.30;8.57;;;5.80;99.90;;;;;;5025250;28;20053;-64
2023/01/09 07:04:09;;;;;;;26.40;8.57;;;5.70;99.90;;;;;;5048992;28;20153;-64
2023/01/09 07:06:35;;;;;;;21.38;8.20;;;5.80;99.90;;;;;;5044386;28;20083;-64
2023/01/09 07:09:01;;;;;;;20.33;9.35;;;5.80;99.90;;;;;;5040933;28;20064;-64
2023/01/09 07:11:27;;;;;;;12.90;5.90;;;5.80;99.90;;;;;;5042314;28;20105;-64
2023/01/09 07:13:53;;;;;;;13.73;8.15;;;5.80;99.90;;;;;;5049192;28;20088;-65
2023/01/09 07:16:19;;;;;;;15.60;9.15;;;5.80;99.90;;;;;;5049424;28;20079;-64
2023/01/09 07:18:45;;;;;;;23.10;9.23;;;5.80;99.90;;;;;;5049441;28;20051;-64
2023/01/09 07:21:10;;;;;;;12.70;7.43;;;5.80;99.90;;;;;;5048858;28;20040;-64
2023/01/09 07:23:36;;;;;;;17.85;8.65;;;5.90;99.90;;;;;;5031233;28;20056;-64
2023/01/09 07:26:03;;;;;;;22.80;8.52;;;5.90;99.90;;;;;;5048469;28;20041;-64
2023/01/09 07:28:29;;;;;;;18.50;9.35;;;5.90;99.90;;;;;;5014357;28;20131;-64
2023/01/09 07:30:55;;;;;;;10.50;7.38;;;5.90;99.90;;;;;;5029539;28;20119;-64
2023/01/09 07:33:21;;;;;;;19.73;9.40;;;5.80;99.90;;;;;;5042021;28;20053;-64
2023/01/09 07:35:47;;;;;;;24.35;8.98;;;5.80;99.90;;;;;;5048420;28;20037;-64
2023/01/09 07:38:12;;;;;;;10.73;7.38;;;5.80;99.90;;;;;;5030647;28;20115;-64
2023/01/09 07:40:38;;;;;;;15.48;7.43;;;5.90;99.90;;;;;;5046173;28;20044;-64
2023/01/09 07:43:04;;;;;;;12.50;7.60;;;5.80;99.90;;;;;;5026744;28;20068;-64
2023/01/09 07:45:30;;;;;;;9.98;6.53;;;5.80;99.90;;;;;;5048739;28;20041;-64
2023/01/09 07:47:55;;;;;;;12.65;6.57;;;5.80;99.90;;;;;;5048489;28;20045;-64
2023/01/09 07:50:21;;;;;;;12.55;7.60;;;5.90;99.90;;;;;;5003006;28;20052;-64
2023/01/09 07:52:47;;;;;;;15.48;7.55;;;5.80;99.90;;;;;;5011769;28;20102;-64
2023/01/09 07:55:13;;;;;;;12.63;6.38;;;5.80;99.90;;;;;;5048824;28;20041;-64
2023/01/09 07:57:39;;;;;;;19.38;7.68;;;5.80;99.90;;;;;;5030839;28;20053;-64
2023/01/09 08:00:06;;;;;;;14.60;6.05;;;5.90;99.90;;;;;;5047708;28;20041;-64
2023/01/09 08:02:32;;;;;;;15.80;6.05;;;5.90;99.90;;;;;;5043451;28;20484;-64
2023/01/09 08:04:58;;;;;;;12.48;7.05;;;5.90;99.90;;;;;;5047538;28;20521;-64
2023/01/09 08:07:24;;;;;;;14.68;7.75;;;5.90;99.90;;;;;;5047405;28;20049;-65
2023/01/09 08:09:49;;;;;;;12.57;7.00;;;5.90;99.90;;;;;;5019422;28;20447;-64
2023/01/09 08:12:15;;;;;;;8.55;4.38;;;5.90;99.90;;;;;;5042506;28;20071;-64
2023/01/09 08:14:41;;;;;;;14.65;6.70;;;5.90;99.90;;;;;;5047949;28;20036;-64
2023/01/09 08:17:08;;;;;;;11.00;6.45;;;5.90;99.90;;;;;;5047823;28;20048;-64
2023/01/09 08:19:33;;;;;;;13.85;6.53;;;5.90;99.90;;;;;;5013104;28;20052;-64
2023/01/09 08:21:59;;;;;;;13.23;5.90;;;5.90;99.90;;;;;;5046721;28;20423;-64
2023/01/09 08:24:25;;;;;;;18.58;5.65;;;5.90;99.90;;;;;;5045772;28;20126;-65
2023/01/09 08:26:51;;;;;;;23.90;6.43;;;5.90;99.90;;;;;;5047650;28;20037;-64
2023/01/09 08:29:16;;;;;;;11.30;5.57;;;5.90;99.90;;;;;;5046670;28;20622;-65
2023/01/09 08:31:42;;;;;;;18.90;6.10;;;5.90;99.90;;;;;;5021563;28;20049;-64
2023/01/09 08:34:08;;;;;;;12.30;6.10;;;5.90;99.90;;;;;;5040952;28;20123;-65
2023/01/09 08:36:34;;;;;;;10.93;5.35;;;6.00;99.90;;;;;;5046831;28;20082;-65
2023/01/09 08:39:00;;;;;;;8.10;5.20;;;6.00;99.90;;;;;;5046532;28;20154;-64
2023/01/09 08:47:04;;;;;;;7.53;4.38;;;6.00;99.90;;;;;;5047164;28;20049;-65
2023/01/09 08:49:31;;;;;;;12.40;4.35;;;6.00;99.90;;;;;;5047764;28;20610;-64
2023/01/09 08:51:57;;;;;;;12.63;4.30;;;6.00;99.90;;;;;;5044805;28;20045;-64
2023/01/09 08:54:23;;;;;;;9.25;4.53;;;6.00;99.90;;;;;;5047995;28;20051;-64
2023/01/09 08:56:50;;;;;;;14.93;5.15;;;6.00;99.90;;;;;;5001076;28;21073;-65
2023/01/09 08:59:16;;;;;;;5.90;3.97;;;6.00;99.90;;;;;;5047038;28;20501;-64
2023/01/09 09:01:42;;;;;;;15.38;4.07;;;6.10;99.90;;;;;;5018380;28;20124;-64
2023/01/09 09:04:08;;;;;;;9.48;4.25;;;6.10;99.90;;;;;;5046159;28;20131;-64
2023/01/09 09:06:34;;;;;;;9.07;3.47;;;6.00;99.90;;;;;;5046818;28;20086;-65
2023/01/09 09:09:02;;;;;;;8.35;3.85;;;6.00;99.90;;;;;;5043323;28;20046;-64
2023/01/09 09:11:32;;;;;;;9.70;3.60;;;6.00;99.90;;;;;;5046586;28;20562;-65
2023/01/09 09:13:58;;;;;;;6.95;3.25;;;6.00;99.90;;;;;;5040687;28;20045;-65
2023/01/09 09:16:25;;;;;;;10.77;3.58;;;6.00;99.90;;;;;;5045943;28;20502;-64
2023/01/09 09:18:51;;;;;;;12.77;3.50;;;6.00;99.90;;;;;;5046034;28;20048;-64
2023/01/09 09:21:17;;;;;;;9.30;3.45;;;6.00;99.90;;;;;;5046884;28;20037;-64
2023/01/09 09:23:43;;;;;;;15.13;3.80;;;6.00;99.90;;;;;;5022245;28;20057;-65
2023/01/09 09:26:09;;;;;;;20.10;3.60;;;6.00;99.90;;;;;;5028608;28;20124;-65
2023/01/09 09:28:35;;;;;;;6.15;3.25;;;6.00;99.90;;;;;;5046418;28;20515;-64
2023/01/09 09:31:04;;;;;;;7.00;3.42;;;6.00;99.90;;;;;;5045044;28;20128;-65
2023/01/09 09:33:30;;;;;;;16.50;2.80;;;6.00;99.90;;;;;;5044181;28;20483;-64
2023/01/09 09:35:58;;;;;;;6.40;2.75;;;6.10;99.90;;;;;;5046205;28;20307;-65
2023/01/09 09:38:24;;;;;;;5.63;3.33;;;6.00;99.90;;;;;;5028432;28;20053;-65
2023/01/09 09:40:53;;;;;;;6.65;2.40;;;6.00;99.90;;;;;;5028640;28;20129;-64
2023/01/09 09:46:59;;;;;;;7.07;2.38;;;6.00;99.90;;;;;;5042937;28;20466;-64
2023/01/09 09:49:42;;;;;;;7.25;2.25;;;6.10;99.90;;;;;;5045411;28;20041;-65
2023/01/09 09:52:38;;;;;;;4.90;2.22;;;6.10;99.90;;;;;;5044953;28;20063;-65
2023/01/09 09:55:18;;;;;;;14.52;2.38;;;6.20;99.90;;;;;;5043426;28;20106;-64
2023/01/09 09:57:45;;;;;;;;;;;6.20;99.90;;;;;;5020322;28;20511;-64
2023/01/09 10:00:16;;;;;;;9.40;2.50;;;6.20;99.90;;;;;;5045466;28;20276;-65
2023/01/09 10:03:37;;;;;;;11.30;2.30;;;6.30;99.90;;;;;;5044432;28;20051;-64
2023/01/09 10:06:15;;;;;;;8.75;1.92;;;6.30;99.90;;;;;;5010931;28;20108;-64
2023/01/09 10:08:57;;;;;;;9.85;2.17;;;6.40;99.90;;;;;;5046563;28;20056;-64
2023/01/09 10:11:31;;;;;;;4.78;1.38;;;6.40;99.90;;;;;;5018543;28;20141;-65
2023/01/09 10:14:03;;;;;;;8.75;2.33;;;6.40;99.90;;;;;;5045806;28;20045;-64
2023/01/09 10:17:06;;;;;;;6.35;2.08;;;6.40;99.90;;;;;;5028886;28;20395;-64
2023/01/09 10:19:33;;;;;;;5.43;2.05;;;6.40;99.90;;;;;;5028353;28;20084;-64
2023/01/09 10:22:14;;;;;;;6.03;2.00;;;6.40;99.90;;;;;;5045233;28;20497;-64
2023/01/09 10:25:06;;;;;;;12.40;1.65;;;6.40;99.90;;;;;;5011896;28;20053;-64
2023/01/09 10:28:03;;;;;;;6.78;2.20;;;6.40;99.90;;;;;;5045905;28;20041;-65
2023/01/09 10:30:48;;;;;;;8.48;1.55;;;6.50;99.90;;;;;;5047409;28;20063;-64
2023/01/09 10:33:29;;;;;;;12.63;1.77;;;6.50;99.90;;;;;;5048464;28;20127;-64
2023/01/09 10:36:01;;;;;;;5.55;1.38;;;6.50;99.90;;;;;;5032161;28;20596;-65
2023/01/09 10:38:40;;;;;;;6.00;1.80;;;6.60;99.90;;;;;;5050602;28;20040;-64
2023/01/09 10:41:16;;;;;;;7.60;2.15;;;6.60;99.90;;;;;;5015118;28;20049;-65
2023/01/09 10:43:51;;;;;;;7.93;1.70;;;6.70;99.90;;;;;;5038499;28;20088;-64
2023/01/09 10:46:28;;;;;;;7.35;1.98;;;6.70;99.90;;;;;;5049096;28;20041;-64
2023/01/09 10:48:58;;;;;;;4.45;1.58;;;6.80;99.90;;;;;;5049585;28;20057;-64
2023/01/09 10:51:45;;;;;;;6.97;1.42;;;6.80;99.90;;;;;;5049938;28;20430;-64
2023/01/09 10:54:13;;;;;;;7.82;1.52;;;6.80;99.90;;;;;;5048401;28;20044;-65
2023/01/09 10:56:45;;;;;;;12.10;2.10;;;6.90;99.90;;;;;;5049550;28;20447;-64
2023/01/09 10:59:11;;;;;;;7.13;1.98;;;7.00;99.90;;;;;;5049279;28;20076;-64
2023/01/09 11:01:39;;;;;;;9.20;2.03;;;6.90;99.90;;;;;;5025262;28;20515;-64
2023/01/09 11:04:36;;;;;;;5.78;1.90;;;7.00;99.90;;;;;;5043697;28;20455;-65
2023/01/09 11:07:11;;;;;;;8.15;2.00;;;7.10;99.90;;;;;;5033162;28;20053;-64
2023/01/09 11:09:58;;;;;;;5.00;1.70;;;7.10;99.90;;;;;;5024576;28;20480;-64
2023/01/09 11:12:26;;;;;;;5.38;1.80;;;7.20;99.90;;;;;;5046637;28;20045;-64
2023/01/09 11:14:52;;;;;;;7.57;2.28;;;7.20;99.90;;;;;;5048097;28;20064;-64
2023/01/09 11:17:25;;;;;;;10.73;2.50;;;7.20;99.90;;;;;;5049295;28;20407;-65
2023/01/09 11:20:17;;;;;;;5.80;2.53;;;7.20;99.90;;;;;;5048970;28;20140;-65
2023/01/09 11:22:49;;;;;;;7.32;2.10;;;7.20;99.90;;;;;;5027481;28;20067;-65
2023/01/09 11:25:18;;;;;;;9.30;2.63;;;7.20;99.90;;;;;;5045535;28;20049;-64
2023/01/09 11:28:05;;;;;;;6.03;2.33;;;7.20;99.90;;;;;;5026939;28;20546;-64
2023/01/09 11:30:35;;;;;;;8.27;1.95;;;7.20;99.90;;;;;;5029843;28;20534;-64
2023/01/09 11:33:17;;;;;;;11.00;2.65;;;7.10;99.90;;;;;;5045110;28;20048;-64
2023/01/09 11:36:04;;;;;;;6.18;2.15;;;7.10;99.90;;;;;;5047163;28;20048;-64
2023/01/09 11:38:48;;;;;;;11.43;2.67;;;7.10;99.90;;;;;;5046411;28;20049;-64
2023/01/09 11:41:21;;;;;;;7.72;2.15;;;7.20;99.90;;;;;;5043805;28;20696;-64
2023/01/09 11:43:50;;;;;;;12.65;1.80;;;7.20;99.90;;;;;;5047222;28;20041;-64
2023/01/09 11:46:36;;;;;;;9.05;2.13;;;7.20;99.90;;;;;;5010363;28;20055;-65
2023/01/09 11:49:24;;;;;;;8.55;2.30;;;7.20;99.90;;;;;;5013684;28;20049;-64
2023/01/09 11:52:16;;;;;;;9.45;1.85;;;7.20;99.90;;;;;;5030424;28;20075;-64
2023/01/09 11:55:05;;;;;;;9.88;2.35;;;7.30;99.90;;;;;;5047827;28;20088;-64
2023/01/09 11:57:32;;;;;;;10.07;2.47;;;7.20;99.90;;;;;;5029264;28;20399;-64
2023/01/09 12:00:17;;;;;;;6.35;1.88;;;7.30;99.90;;;;;;5046404;28;20186;-64
2023/01/09 12:03:13;;;;;;;5.90;1.63;;;7.30;99.90;;;;;;5043961;28;20063;-64
2023/01/09 12:06:01;;;;;;;5.80;2.00;;;7.20;99.90;;;;;;5045556;28;20037;-64
2023/01/09 12:09:05;;;;;;;9.65;2.13;;;7.20;99.90;;;;;;5041828;28;20095;-64
2023/01/09 12:12:03;;;;;;;7.80;2.45;;;7.20;99.90;;;;;;5037480;28;20045;-64
2023/01/09 12:14:37;;;;;;;8.35;1.95;;;7.20;99.90;;;;;;4945218;29;20121;-64
2023/01/09 12:17:13;;;;;;;5.63;1.55;;;7.20;99.90;;;;;;4940572;29;20043;-64
2023/01/09 12:20:05;;;;;;;9.30;1.90;;;7.20;99.90;;;;;;4998288;28;20085;-64
2023/01/09 12:22:36;;;;;;;9.25;1.65;;;7.20;99.90;;;;;;5026796;28;20045;-64
2023/01/09 12:25:24;;;;;;;6.28;1.92;;;7.20;99.90;;;;;;5029571;28;20056;-64
2023/01/09 12:28:10;;;;;;;10.48;2.22;;;7.30;99.90;;;;;;5026963;28;20098;-64
2023/01/09 12:31:00;;;;;;;5.95;2.28;;;7.30;99.90;;;;;;5047996;28;20045;-64
2023/01/09 12:33:31;;;;;;;;;;;7.30;99.90;;;;;;5027778;28;20102;-64
2023/01/09 12:36:20;;;;;;;5.72;2.10;;;7.30;99.90;;;;;;5047452;28;19920;-64
2023/01/09 12:39:17;;;;;;;9.23;2.50;;;7.30;99.90;;;;;;5020949;28;20578;-64
2023/01/09 12:42:07;;;;;;;5.20;1.90;;;7.30;99.90;;;;;;5046236;28;20275;-65
2023/01/09 12:44:40;;;;;;;4.63;2.40;;;7.20;99.90;;;;;;5047073;28;20127;-64
2023/01/09 12:47:33;;;;;;;6.95;2.42;;;7.30;99.90;;;;;;5047364;28;20492;-64
2023/01/09 12:50:40;;;;;;;7.47;2.05;;;7.20;99.90;;;;;;5045253;28;20037;-64
2023/01/09 12:53:29;;;;;;;5.45;2.20;;;7.20;99.90;;;;;;5041867;28;20045;-64
2023/01/09 12:56:05;;;;;;;3.80;2.03;;;7.20;99.90;;;;;;5047360;28;20048;-64
2023/01/09 12:58:51;;;;;;;11.75;2.45;;;7.20;99.90;;;;;;5045644;28;20499;-64
2023/01/09 13:01:28;;;;;;;4.75;2.20;;;7.20;99.90;;;;;;5043682;28;20061;-64
2023/01/09 13:04:16;;;;;;;7.30;2.35;;;7.20;99.90;;;;;;5047271;28;20458;-64
2023/01/09 13:06:51;;;;;;;4.03;2.28;;;7.30;99.90;;;;;;5046650;28;20076;-64
2023/01/09 13:09:50;;;;;;;10.18;2.55;;;7.30;99.90;;;;;;5042980;28;20139;-65
2023/01/09 13:12:20;;;;;;;7.82;2.40;;;7.30;99.90;;;;;;5041254;28;20049;-64
2023/01/09 13:14:50;;;;;;;;;;;7.30;99.90;;;;;;5047864;28;20044;-64
2023/01/09 13:17:42;;;;;;;6.13;2.50;;;7.30;99.90;;;;;;5043449;28;19963;-64
2023/01/09 13:20:27;;;;;;;9.02;2.75;;;7.30;99.90;;;;;;5018791;28;20406;-64
2023/01/09 13:22:53;;;;;;;8.00;2.60;;;7.30;99.90;;;;;;5047336;28;20052;-64
2023/01/09 13:25:25;;;;;;;2.50;1.60;;;7.30;99.90;;;;;;5046326;28;20514;-64
2023/01/09 13:27:58;;;;;;;8.20;2.83;;;7.30;99.90;;;;;;5035617;28;20059;-64
2023/01/09 13:31:02;;;;;;;5.65;2.53;;;7.30;99.90;;;;;;5025025;28;20467;-64